createdAt,value
2022-12-19T00:01:07.404Z,-3.58
2022-12-19T00:11:10.397Z,-3.64
2022-12-19T00:21:16.869Z,-3.52
2022-12-19T00:31:20.005Z,-3.40
2022-12-19T00:41:33.550Z,-3.55
2022-12-19T00:51:37.642Z,-3.55
2022-12-19T01:01:41.529Z,-3.55
2022-12-19T01:12:07.413Z,-3.53
2022-12-19T01:22:09.259Z,-3.48
2022-12-19T01:32:14.420Z,-3.52
2022-12-19T01:42:23.451Z,-3.59
2022-12-19T01:52:25.943Z,-3.56
2022-12-19T02:02:36.318Z,-3.41
2022-12-19T02:12:44.537Z,-3.52
2022-12-19T02:22:56.295Z,-3.47
2022-12-19T02:33:05.881Z,-3.43
2022-12-19T02:43:13.240Z,-3.38
2022-12-19T02:53:23.975Z,-3.29
2022-12-19T03:04:14.615Z,-3.19
2022-12-19T03:14:20.061Z,-3.11
2022-12-19T03:24:25.730Z,-2.96
2022-12-19T03:34:32.898Z,-2.92
2022-12-19T03:44:39.493Z,-2.86
2022-12-19T03:54:48.575Z,-3.10
2022-12-19T04:05:02.474Z,-3.11
2022-12-19T04:15:05.550Z,-3.11
2022-12-19T04:25:13.729Z,-3.04
2022-12-19T04:35:17.419Z,-3.12
2022-12-19T04:45:22.724Z,-2.91
2022-12-19T04:55:28.767Z,-2.88
2022-12-19T05:05:30.509Z,-2.91
2022-12-19T05:15:33.594Z,-2.72
2022-12-19T05:25:42.243Z,-2.73
2022-12-19T05:35:44.970Z,-2.44
2022-12-19T05:45:48.958Z,-2.30
2022-12-19T05:56:12.008Z,-2.34
2022-12-19T06:06:17.664Z,-2.16
2022-12-19T06:16:21.490Z,-2.15
2022-12-19T06:26:25.143Z,-2.19
2022-12-19T06:37:31.694Z,-2.15
2022-12-19T06:47:33.290Z,-2.21
2022-12-19T06:57:37.423Z,-2.18
2022-12-19T07:07:40.711Z,-2.15
2022-12-19T07:17:43.672Z,-2.18
2022-12-19T07:27:46.477Z,-2.16
2022-12-19T07:37:48.066Z,-2.22
2022-12-19T07:48:07.293Z,-1.94
2022-12-19T07:58:16.820Z,-1.44
2022-12-19T08:08:18.695Z,-1.12
2022-12-19T08:18:20.583Z,-1.17
2022-12-19T08:28:25.340Z,-0.88
2022-12-19T08:38:27.024Z,-0.64
2022-12-19T08:48:29.159Z,-0.32
2022-12-19T08:58:31.318Z,-0.13
2022-12-19T09:08:34.121Z,-0.07
2022-12-19T09:18:42.637Z,0.41
2022-12-19T09:28:48.046Z,2.16
2022-12-19T09:38:57.526Z,4.24
2022-12-19T09:49:02.292Z,3.69
2022-12-19T09:59:22.528Z,5.34
2022-12-19T10:11:34.784Z,4.56
2022-12-19T10:20:19.328Z,4.48
2022-12-19T10:30:23.094Z,6.31
2022-12-19T10:40:36.273Z,7.60
2022-12-19T10:50:41.301Z,7.95
2022-12-19T11:01:04.402Z,7.13
2022-12-19T11:13:10.331Z,6.79
2022-12-19T11:29:44.851Z,6.19
2022-12-19T11:32:36.678Z,4.98
2022-12-19T11:42:37.788Z,6.06
2022-12-19T11:53:16.538Z,7.17
2022-12-19T12:03:58.324Z,5.80
2022-12-19T12:19:33.813Z,7.07
2022-12-19T12:31:41.875Z,5.47
2022-12-19T12:45:55.757Z,1.18
2022-12-19T12:56:00.897Z,1.64
2022-12-19T13:06:07.575Z,2.28
2022-12-19T13:16:43.707Z,2.21
2022-12-19T13:26:51.340Z,2.55
2022-12-19T13:40:02.343Z,2.53
2022-12-19T13:47:29.958Z,1.59
2022-12-19T13:57:38.740Z,0.86
2022-12-19T14:07:42.374Z,0.12
2022-12-19T14:17:49.329Z,-0.08
2022-12-19T14:28:24.462Z,-0.59
2022-12-19T14:39:20.436Z,-1.13
2022-12-19T14:53:52.729Z,-1.48
2022-12-19T14:59:42.349Z,-1.74
2022-12-19T15:11:06.715Z,-1.76
2022-12-19T15:20:16.434Z,-2.02
2022-12-19T15:30:21.511Z,-2.02
2022-12-19T15:40:33.067Z,-2.07
2022-12-19T15:50:39.832Z,-2.29
2022-12-19T16:00:54.682Z,-2.21
2022-12-19T16:11:01.669Z,-2.34
2022-12-19T16:21:33.754Z,-2.31
2022-12-19T16:31:46.762Z,-2.05
2022-12-19T16:41:48.678Z,-2.00
2022-12-19T16:51:52.110Z,-2.01
2022-12-19T17:01:54.272Z,-1.95
2022-12-19T17:12:01.412Z,-1.80
2022-12-19T17:22:13.259Z,-1.90
2022-12-19T17:32:23.699Z,-1.76
2022-12-19T17:42:29.761Z,-1.75
2022-12-19T17:52:38.703Z,-1.90
2022-12-19T18:02:41.626Z,-1.87
2022-12-19T18:12:55.593Z,-1.84
2022-12-19T18:22:57.863Z,-1.74
2022-12-19T18:33:02.813Z,-1.93
2022-12-19T18:43:06.769Z,-2.11
2022-12-19T18:53:13.439Z,-2.09
2022-12-19T19:03:18.352Z,-2.09
2022-12-19T19:13:21.739Z,-2.15
2022-12-19T19:23:29.675Z,-2.03
2022-12-19T19:33:39.858Z,-2.09
2022-12-19T19:43:42.145Z,-1.99
2022-12-19T19:53:47.988Z,-1.90
2022-12-19T20:03:50.055Z,-2.01
2022-12-19T20:13:52.297Z,-1.96
2022-12-19T20:23:55.931Z,-1.88
2022-12-19T20:33:58.829Z,-1.91
2022-12-19T20:44:01.493Z,-1.84
2022-12-19T20:54:11.706Z,-1.89
2022-12-19T21:04:13.619Z,-1.93
2022-12-19T21:14:16.987Z,-2.27
2022-12-19T21:24:18.877Z,-2.18
2022-12-19T21:34:23.988Z,-2.08
2022-12-19T21:44:26.393Z,-2.15
2022-12-19T21:54:39.484Z,-2.31
2022-12-19T22:04:41.416Z,-2.46
2022-12-19T22:14:44.933Z,-2.53
2022-12-19T22:24:46.794Z,-2.75
2022-12-19T22:34:49.301Z,-2.76
2022-12-19T22:44:53.106Z,-2.79
2022-12-19T22:55:02.136Z,-2.81
2022-12-19T23:05:09.382Z,-2.90
2022-12-19T23:15:11.314Z,-2.86
2022-12-19T23:25:14.186Z,-2.83
2022-12-19T23:35:16.138Z,-2.85
2022-12-19T23:45:31.157Z,-2.80
2022-12-19T23:55:33.017Z,-2.83
